sensor_id;sensor_type;location;lat;lon;timestamp;pressure;altitude;pressure_sealevel;temperature;humidity
46394;BME280;32099;53.588;10.176;2022-10-31T00:00:49;101515.34;;;11.84;82.56
46394;BME280;32099;53.588;10.176;2022-10-31T00:03:15;101520.47;;;11.87;82.48
46394;BME280;32099;53.588;10.176;2022-10-31T00:05:48;101520.28;;;11.88;82.71
46394;BME280;32099;53.588;10.176;2022-10-31T00:08:15;101520.13;;;11.90;82.37
46394;BME280;32099;53.588;10.176;2022-10-31T00:10:41;101521.16;;;11.89;82.51
46394;BME280;32099;53.588;10.176;2022-10-31T00:13:08;101528.66;;;11.87;82.41
46394;BME280;32099;53.588;10.176;2022-10-31T00:15:35;101525.94;;;11.87;82.02
46394;BME280;32099;53.588;10.176;2022-10-31T00:18:04;101522.50;;;11.85;82.60
46394;BME280;32099;53.588;10.176;2022-10-31T00:20:31;101526.25;;;11.84;82.55
46394;BME280;32099;53.588;10.176;2022-10-31T00:23:03;101520.97;;;11.82;82.40
46394;BME280;32099;53.588;10.176;2022-10-31T00:25:32;101527.47;;;11.81;82.52
46394;BME280;32099;53.588;10.176;2022-10-31T00:28:02;101526.97;;;11.78;82.38
46394;BME280;32099;53.588;10.176;2022-10-31T00:30:28;101527.31;;;11.75;82.55
46394;BME280;32099;53.588;10.176;2022-10-31T00:32:54;101533.78;;;11.73;82.65
46394;BME280;32099;53.588;10.176;2022-10-31T00:35:19;101537.34;;;11.74;82.51
46394;BME280;32099;53.588;10.176;2022-10-31T00:37:44;101534.13;;;11.70;82.45
46394;BME280;32099;53.588;10.176;2022-10-31T00:40:10;101530.88;;;11.67;82.91
46394;BME280;32099;53.588;10.176;2022-10-31T00:42:36;101527.31;;;11.66;82.65
46394;BME280;32099;53.588;10.176;2022-10-31T00:45:01;101532.59;;;11.68;82.59
46394;BME280;32099;53.588;10.176;2022-10-31T00:47:26;101533.63;;;11.67;82.26
46394;BME280;32099;53.588;10.176;2022-10-31T00:49:51;101531.06;;;11.65;82.39
46394;BME280;32099;53.588;10.176;2022-10-31T00:52:17;101530.03;;;11.66;82.77
46394;BME280;32099;53.588;10.176;2022-10-31T00:54:42;101529.19;;;11.66;82.70
46394;BME280;32099;53.588;10.176;2022-10-31T00:57:07;101529.34;;;11.64;83.05
46394;BME280;32099;53.588;10.176;2022-10-31T00:59:33;101528.50;;;11.64;83.13
46394;BME280;32099;53.588;10.176;2022-10-31T01:01:58;101520.97;;;11.66;82.79
46394;BME280;32099;53.588;10.176;2022-10-31T01:04:23;101524.72;;;11.65;82.87
46394;BME280;32099;53.588;10.176;2022-10-31T01:06:49;101519.44;;;11.63;83.26
46394;BME280;32099;53.588;10.176;2022-10-31T01:09:14;101520.47;;;11.62;83.40
46394;BME280;32099;53.588;10.176;2022-10-31T01:11:39;101523.22;;;11.62;82.92
46394;BME280;32099;53.588;10.176;2022-10-31T01:14:05;101530.19;;;11.65;82.88
46394;BME280;32099;53.588;10.176;2022-10-31T01:16:30;101541.31;;;11.63;82.61
46394;BME280;32099;53.588;10.176;2022-10-31T01:18:55;101538.75;;;11.62;82.52
46394;BME280;32099;53.588;10.176;2022-10-31T01:21:22;101544.38;;;11.60;82.82
46394;BME280;32099;53.588;10.176;2022-10-31T01:23:50;101547.09;;;11.60;82.77
46394;BME280;32099;53.588;10.176;2022-10-31T01:26:16;101551.53;;;11.61;82.50
46394;BME280;32099;53.588;10.176;2022-10-31T01:28:54;101550.69;;;11.61;82.44
46394;BME280;32099;53.588;10.176;2022-10-31T01:31:23;101552.56;;;11.60;82.25
46394;BME280;32099;53.588;10.176;2022-10-31T01:33:50;101548.31;;;11.57;82.44
46394;BME280;32099;53.588;10.176;2022-10-31T01:36:23;101553.06;;;11.55;82.58
46394;BME280;32099;53.588;10.176;2022-10-31T01:38:52;101557.84;;;11.53;82.63
46394;BME280;32099;53.588;10.176;2022-10-31T01:41:24;101565.22;;;11.53;82.74
46394;BME280;32099;53.588;10.176;2022-10-31T01:44:03;101570.81;;;11.51;82.92
46394;BME280;32099;53.588;10.176;2022-10-31T01:46:48;101578.69;;;11.54;83.23
46394;BME280;32099;53.588;10.176;2022-10-31T01:49:18;101561.28;;;11.55;83.63
46394;BME280;32099;53.588;10.176;2022-10-31T01:52:05;101571.19;;;11.56;83.63
46394;BME280;32099;53.588;10.176;2022-10-31T01:54:40;101566.56;;;11.57;83.37
46394;BME280;32099;53.588;10.176;2022-10-31T01:57:11;101573.72;;;11.58;83.27
46394;BME280;32099;53.588;10.176;2022-10-31T01:59:40;101572.03;;;11.57;83.12
46394;BME280;32099;53.588;10.176;2022-10-31T02:02:09;101576.66;;;11.56;83.33
46394;BME280;32099;53.588;10.176;2022-10-31T02:04:35;101578.34;;;11.57;83.10
46394;BME280;32099;53.588;10.176;2022-10-31T02:07:06;101577.34;;;11.58;82.93
46394;BME280;32099;53.588;10.176;2022-10-31T02:09:35;101583.81;;;11.57;82.93
46394;BME280;32099;53.588;10.176;2022-10-31T02:12:02;101580.41;;;11.55;82.98
46394;BME280;32099;53.588;10.176;2022-10-31T02:14:29;101582.44;;;11.53;83.11
46394;BME280;32099;53.588;10.176;2022-10-31T02:16:56;101583.31;;;11.54;83.30
46394;BME280;32099;53.588;10.176;2022-10-31T02:22:27;101589.59;;;11.54;83.39
46394;BME280;32099;53.588;10.176;2022-10-31T02:27:41;101595.59;;;11.58;84.22
46394;BME280;32099;53.588;10.176;2022-10-31T02:30:21;101593.53;;;11.60;84.09
46394;BME280;32099;53.588;10.176;2022-10-31T02:38:39;101598.34;;;11.83;85.39
46394;BME280;32099;53.588;10.176;2022-10-31T02:46:59;101611.03;;;12.00;84.42
46394;BME280;32099;53.588;10.176;2022-10-31T02:52:27;101614.25;;;12.12;84.34
46394;BME280;32099;53.588;10.176;2022-10-31T02:54:54;101612.88;;;12.16;85.29
46394;BME280;32099;53.588;10.176;2022-10-31T02:57:23;101609.78;;;12.19;85.22
46394;BME280;32099;53.588;10.176;2022-10-31T02:59:53;101610.13;;;12.25;85.78
46394;BME280;32099;53.588;10.176;2022-10-31T03:02:29;101621.06;;;12.33;85.44
46394;BME280;32099;53.588;10.176;2022-10-31T03:05:18;101620.72;;;12.36;84.88
46394;BME280;32099;53.588;10.176;2022-10-31T03:08:11;101615.94;;;12.38;84.88
46394;BME280;32099;53.588;10.176;2022-10-31T03:10:45;101625.84;;;12.39;84.47
46394;BME280;32099;53.588;10.176;2022-10-31T03:13:35;101624.31;;;12.37;84.20
46394;BME280;32099;53.588;10.176;2022-10-31T03:16:08;101628.91;;;12.36;84.15
46394;BME280;32099;53.588;10.176;2022-10-31T03:18:40;101624.66;;;12.33;84.13
46394;BME280;32099;53.588;10.176;2022-10-31T03:21:12;101633.00;;;12.32;83.85
46394;BME280;32099;53.588;10.176;2022-10-31T03:23:40;101628.56;;;12.31;84.11
46394;BME280;32099;53.588;10.176;2022-10-31T03:26:09;101634.03;;;12.31;84.85
46394;BME280;32099;53.588;10.176;2022-10-31T03:28:46;101637.13;;;12.28;84.02
46394;BME280;32099;53.588;10.176;2022-10-31T03:31:22;101633.72;;;12.26;84.34
46394;BME280;32099;53.588;10.176;2022-10-31T03:33:52;101633.91;;;12.24;84.37
46394;BME280;32099;53.588;10.176;2022-10-31T03:36:21;101645.88;;;12.23;84.25
46394;BME280;32099;53.588;10.176;2022-10-31T03:38:47;101638.00;;;12.20;83.74
46394;BME280;32099;53.588;10.176;2022-10-31T03:41:15;101639.88;;;12.19;84.26
46394;BME280;32099;53.588;10.176;2022-10-31T03:43:47;101653.72;;;12.18;84.16
46394;BME280;32099;53.588;10.176;2022-10-31T03:46:20;101653.03;;;12.16;84.47
46394;BME280;32099;53.588;10.176;2022-10-31T03:48:46;101656.78;;;12.15;83.93
46394;BME280;32099;53.588;10.176;2022-10-31T03:51:14;101658.00;;;12.12;83.84
46394;BME280;32099;53.588;10.176;2022-10-31T03:53:51;101659.19;;;12.10;83.71
46394;BME280;32099;53.588;10.176;2022-10-31T03:56:22;101661.06;;;12.09;84.02
46394;BME280;32099;53.588;10.176;2022-10-31T03:59:05;101666.72;;;12.08;83.60
46394;BME280;32099;53.588;10.176;2022-10-31T04:01:37;101671.34;;;12.07;84.00
46394;BME280;32099;53.588;10.176;2022-10-31T04:04:08;101679.69;;;12.06;84.31
46394;BME280;32099;53.588;10.176;2022-10-31T04:06:34;101675.94;;;12.07;84.24
46394;BME280;32099;53.588;10.176;2022-10-31T04:09:03;101682.41;;;12.06;84.46
46394;BME280;32099;53.588;10.176;2022-10-31T04:11:33;101688.06;;;12.04;84.43
46394;BME280;32099;53.588;10.176;2022-10-31T04:14:03;101692.84;;;12.02;83.67
46394;BME280;32099;53.588;10.176;2022-10-31T04:16:30;101700.34;;;12.00;83.93
46394;BME280;32099;53.588;10.176;2022-10-31T04:18:55;101700.66;;;11.97;83.92
46394;BME280;32099;53.588;10.176;2022-10-31T04:21:26;101697.25;;;11.95;83.65
46394;BME280;32099;53.588;10.176;2022-10-31T04:23:53;101699.13;;;11.94;84.42
46394;BME280;32099;53.588;10.176;2022-10-31T04:26:18;101697.41;;;11.93;83.97
46394;BME280;32099;53.588;10.176;2022-10-31T04:28:44;101697.59;;;11.92;84.18
46394;BME280;32099;53.588;10.176;2022-10-31T04:31:10;101693.84;;;11.93;84.23
46394;BME280;32099;53.588;10.176;2022-10-31T04:33:36;101696.56;;;11.93;83.99
46394;BME280;32099;53.588;10.176;2022-10-31T04:36:02;101695.88;;;11.91;84.44
46394;BME280;32099;53.588;10.176;2022-10-31T04:38:28;101697.41;;;11.93;84.65
46394;BME280;32099;53.588;10.176;2022-10-31T04:40:53;101699.13;;;11.94;84.40
46394;BME280;32099;53.588;10.176;2022-10-31T04:43:18;101704.25;;;11.97;84.79
46394;BME280;32099;53.588;10.176;2022-10-31T04:45:43;101703.28;;;11.98;84.74
46394;BME280;32099;53.588;10.176;2022-10-31T04:48:09;101698.66;;;11.99;84.65
46394;BME280;32099;53.588;10.176;2022-10-31T04:50:34;101702.94;;;12.01;85.07
46394;BME280;32099;53.588;10.176;2022-10-31T04:52:59;101704.16;;;12.07;85.10
46394;BME280;32099;53.588;10.176;2022-10-31T04:55:25;101699.00;;;12.12;84.60
46394;BME280;32099;53.588;10.176;2022-10-31T04:57:50;101703.13;;;12.16;84.75
46394;BME280;32099;53.588;10.176;2022-10-31T05:00:16;101708.75;;;12.23;85.01
46394;BME280;32099;53.588;10.176;2022-10-31T05:02:47;101701.56;;;12.22;85.18
46394;BME280;32099;53.588;10.176;2022-10-31T05:05:14;101704.31;;;12.30;84.90
46394;BME280;32099;53.588;10.176;2022-10-31T05:07:41;101706.53;;;12.35;84.99
46394;BME280;32099;53.588;10.176;2022-10-31T05:10:08;101709.75;;;12.39;84.96
46394;BME280;32099;53.588;10.176;2022-10-31T05:12:34;101708.75;;;12.40;84.97
46394;BME280;32099;53.588;10.176;2022-10-31T05:15:00;101713.03;;;12.42;85.49
46394;BME280;32099;53.588;10.176;2022-10-31T05:17:25;101711.97;;;12.43;85.46
46394;BME280;32099;53.588;10.176;2022-10-31T05:19:50;101701.72;;;12.45;85.49
46394;BME280;32099;53.588;10.176;2022-10-31T05:22:16;101712.00;;;12.52;85.35
46394;BME280;32099;53.588;10.176;2022-10-31T05:24:41;101716.06;;;12.56;86.41
46394;BME280;32099;53.588;10.176;2022-10-31T05:27:06;101722.09;;;12.59;85.37
46394;BME280;32099;53.588;10.176;2022-10-31T05:29:31;101720.34;;;12.67;86.21
46394;BME280;32099;53.588;10.176;2022-10-31T05:31:58;101721.84;;;12.77;86.58
46394;BME280;32099;53.588;10.176;2022-10-31T05:34:24;101725.63;;;12.85;86.26
46394;BME280;32099;53.588;10.176;2022-10-31T05:36:49;101712.63;;;12.87;85.92
46394;BME280;32099;53.588;10.176;2022-10-31T05:39:14;101725.41;;;12.94;86.18
46394;BME280;32099;53.588;10.176;2022-10-31T05:41:39;101724.03;;;12.99;85.80
46394;BME280;32099;53.588;10.176;2022-10-31T05:44:05;101729.19;;;13.02;86.39
46394;BME280;32099;53.588;10.176;2022-10-31T05:46:30;101720.44;;;13.06;86.66
46394;BME280;32099;53.588;10.176;2022-10-31T05:48:55;101726.75;;;13.15;86.71
46394;BME280;32099;53.588;10.176;2022-10-31T05:51:21;101714.91;;;13.23;86.63
46394;BME280;32099;53.588;10.176;2022-10-31T05:53:46;101702.75;;;13.25;86.66
46394;BME280;32099;53.588;10.176;2022-10-31T05:56:12;101706.31;;;13.26;87.44
46394;BME280;32099;53.588;10.176;2022-10-31T05:58:37;101710.97;;;13.25;87.88
46394;BME280;32099;53.588;10.176;2022-10-31T06:01:03;101711.63;;;13.27;87.63
46394;BME280;32099;53.588;10.176;2022-10-31T06:03:28;101701.34;;;13.30;86.82
46394;BME280;32099;53.588;10.176;2022-10-31T06:05:53;101714.66;;;13.41;87.05
46394;BME280;32099;53.588;10.176;2022-10-31T06:08:19;101715.34;;;13.43;86.50
46394;BME280;32099;53.588;10.176;2022-10-31T06:10:44;101725.13;;;13.46;86.52
46394;BME280;32099;53.588;10.176;2022-10-31T06:13:09;101722.00;;;13.49;87.15
46394;BME280;32099;53.588;10.176;2022-10-31T06:15:34;101738.63;;;13.47;86.94
46394;BME280;32099;53.588;10.176;2022-10-31T06:18:03;101735.72;;;13.49;86.77
46394;BME280;32099;53.588;10.176;2022-10-31T06:20:30;101733.97;;;13.56;86.77
46394;BME280;32099;53.588;10.176;2022-10-31T06:22:56;101728.44;;;13.64;86.67
46394;BME280;32099;53.588;10.176;2022-10-31T06:25:21;101731.31;;;13.71;85.99
46394;BME280;32099;53.588;10.176;2022-10-31T06:27:47;101737.97;;;13.77;85.84
46394;BME280;32099;53.588;10.176;2022-10-31T06:30:12;101735.03;;;13.78;85.89
46394;BME280;32099;53.588;10.176;2022-10-31T06:32:37;101734.88;;;13.80;85.90
46394;BME280;32099;53.588;10.176;2022-10-31T06:35:03;101742.72;;;13.83;85.61
46394;BME280;32099;53.588;10.176;2022-10-31T06:37:28;101753.53;;;13.84;86.25
46394;BME280;32099;53.588;10.176;2022-10-31T06:39:54;101760.53;;;13.87;86.21
46394;BME280;32099;53.588;10.176;2022-10-31T06:42:19;101759.16;;;13.91;86.38
46394;BME280;32099;53.588;10.176;2022-10-31T06:44:44;101752.44;;;13.94;86.38
46394;BME280;32099;53.588;10.176;2022-10-31T06:47:09;101745.53;;;13.98;86.37
46394;BME280;32099;53.588;10.176;2022-10-31T06:49:35;101743.66;;;13.98;87.36
46394;BME280;32099;53.588;10.176;2022-10-31T06:52:00;101750.19;;;13.97;86.95
46394;BME280;32099;53.588;10.176;2022-10-31T06:54:25;101757.19;;;14.00;86.28
46394;BME280;32099;53.588;10.176;2022-10-31T06:56:50;101759.38;;;14.04;86.54
46394;BME280;32099;53.588;10.176;2022-10-31T06:59:16;101757.16;;;14.08;86.74
46394;BME280;32099;53.588;10.176;2022-10-31T07:01:41;101762.94;;;14.13;86.57
46394;BME280;32099;53.588;10.176;2022-10-31T07:04:08;101778.66;;;14.19;86.27
46394;BME280;32099;53.588;10.176;2022-10-31T07:06:34;101781.91;;;14.23;86.25
46394;BME280;32099;53.588;10.176;2022-10-31T07:08:59;101782.38;;;14.27;86.00
46394;BME280;32099;53.588;10.176;2022-10-31T07:11:24;101791.09;;;14.30;86.30
46394;BME280;32099;53.588;10.176;2022-10-31T07:13:50;101797.06;;;14.34;86.43
46394;BME280;32099;53.588;10.176;2022-10-31T07:16:15;101796.91;;;14.35;86.23
46394;BME280;32099;53.588;10.176;2022-10-31T07:18:40;101798.22;;;14.40;86.51
46394;BME280;32099;53.588;10.176;2022-10-31T07:21:06;101794.28;;;14.42;87.02
46394;BME280;32099;53.588;10.176;2022-10-31T07:23:31;101800.59;;;14.43;86.49
46394;BME280;32099;53.588;10.176;2022-10-31T07:25:57;101803.16;;;14.44;86.28
46394;BME280;32099;53.588;10.176;2022-10-31T07:28:23;101807.63;;;14.45;86.19
46394;BME280;32099;53.588;10.176;2022-10-31T07:30:53;101804.72;;;14.47;86.33
46394;BME280;32099;53.588;10.176;2022-10-31T07:33:20;101801.78;;;14.48;85.97
46394;BME280;32099;53.588;10.176;2022-10-31T07:35:46;101800.72;;;14.49;86.50
46394;BME280;32099;53.588;10.176;2022-10-31T07:38:12;101799.03;;;14.48;86.44
46394;BME280;32099;53.588;10.176;2022-10-31T07:40:38;101805.38;;;14.49;86.51
46394;BME280;32099;53.588;10.176;2022-10-31T07:43:05;101806.41;;;14.48;86.63
46394;BME280;32099;53.588;10.176;2022-10-31T07:45:30;101813.41;;;14.50;86.40
46394;BME280;32099;53.588;10.176;2022-10-31T07:47:56;101814.81;;;14.46;86.64
46394;BME280;32099;53.588;10.176;2022-10-31T07:50:22;101817.00;;;14.51;86.65
46394;BME280;32099;53.588;10.176;2022-10-31T07:52:57;101813.78;;;14.47;86.61
46394;BME280;32099;53.588;10.176;2022-10-31T07:55:27;101816.28;;;14.57;86.54
46394;BME280;32099;53.588;10.176;2022-10-31T07:57:57;101820.19;;;14.63;86.07
46394;BME280;32099;53.588;10.176;2022-10-31T08:00:23;101821.53;;;14.67;86.39
46394;BME280;32099;53.588;10.176;2022-10-31T08:02:55;101814.84;;;14.70;86.87
46394;BME280;32099;53.588;10.176;2022-10-31T08:05:29;101824.59;;;14.72;85.98
46394;BME280;32099;53.588;10.176;2022-10-31T08:07:55;101823.38;;;14.75;86.09
46394;BME280;32099;53.588;10.176;2022-10-31T08:10:22;101823.00;;;14.78;86.20
46394;BME280;32099;53.588;10.176;2022-10-31T08:12:54;101830.69;;;14.83;85.90
46394;BME280;32099;53.588;10.176;2022-10-31T08:15:23;101821.88;;;14.87;85.54
46394;BME280;32099;53.588;10.176;2022-10-31T08:17:48;101819.81;;;14.89;85.41
46394;BME280;32099;53.588;10.176;2022-10-31T08:20:14;101826.34;;;14.88;85.72
46394;BME280;32099;53.588;10.176;2022-10-31T08:22:39;101823.25;;;14.91;85.54
46394;BME280;32099;53.588;10.176;2022-10-31T08:25:05;101818.91;;;14.97;85.66
46394;BME280;32099;53.588;10.176;2022-10-31T08:27:30;101811.34;;;14.99;85.68
46394;BME280;32099;53.588;10.176;2022-10-31T08:29:56;101811.81;;;15.03;85.43
46394;BME280;32099;53.588;10.176;2022-10-31T08:32:21;101819.47;;;15.07;85.26
46394;BME280;32099;53.588;10.176;2022-10-31T08:34:46;101813.78;;;15.09;85.15
46394;BME280;32099;53.588;10.176;2022-10-31T08:37:11;101822.69;;;15.11;85.06
46394;BME280;32099;53.588;10.176;2022-10-31T08:39:37;101821.66;;;15.12;84.74
46394;BME280;32099;53.588;10.176;2022-10-31T08:42:02;101831.97;;;15.10;85.49
46394;BME280;32099;53.588;10.176;2022-10-31T08:44:27;101835.75;;;15.09;84.72
46394;BME280;32099;53.588;10.176;2022-10-31T08:46:53;101832.84;;;15.10;84.75
46394;BME280;32099;53.588;10.176;2022-10-31T08:49:18;101836.28;;;15.13;84.54
46394;BME280;32099;53.588;10.176;2022-10-31T08:51:46;101837.59;;;15.17;84.53
46394;BME280;32099;53.588;10.176;2022-10-31T08:54:12;101845.47;;;15.20;84.45
46394;BME280;32099;53.588;10.176;2022-10-31T08:56:38;101832.97;;;15.17;84.31
46394;BME280;32099;53.588;10.176;2022-10-31T08:59:03;101824.41;;;15.12;84.18
46394;BME280;32099;53.588;10.176;2022-10-31T09:01:28;101827.47;;;15.17;84.52
46394;BME280;32099;53.588;10.176;2022-10-31T09:03:53;101831.91;;;15.18;84.26
46394;BME280;32099;53.588;10.176;2022-10-31T09:06:19;101825.91;;;15.15;84.51
46394;BME280;32099;53.588;10.176;2022-10-31T09:08:44;101829.78;;;15.05;84.43
46394;BME280;32099;53.588;10.176;2022-10-31T09:11:09;101832.06;;;15.02;84.66
46394;BME280;32099;53.588;10.176;2022-10-31T09:13:35;101826.22;;;15.05;84.51
46394;BME280;32099;53.588;10.176;2022-10-31T09:16:00;101828.56;;;15.08;84.35
46394;BME280;32099;53.588;10.176;2022-10-31T09:18:25;101825.81;;;15.08;84.58
46394;BME280;32099;53.588;10.176;2022-10-31T09:20:54;101828.75;;;15.06;84.85
46394;BME280;32099;53.588;10.176;2022-10-31T09:23:22;101818.72;;;15.14;84.73
46394;BME280;32099;53.588;10.176;2022-10-31T09:25:48;101820.16;;;15.24;84.40
46394;BME280;32099;53.588;10.176;2022-10-31T09:28:16;101811.44;;;15.36;84.17
46394;BME280;32099;53.588;10.176;2022-10-31T09:30:45;101810.78;;;15.49;83.18
46394;BME280;32099;53.588;10.176;2022-10-31T09:33:12;101810.28;;;15.60;82.51
46394;BME280;32099;53.588;10.176;2022-10-31T09:35:38;101815.13;;;15.73;82.08
46394;BME280;32099;53.588;10.176;2022-10-31T09:38:09;101800.22;;;15.82;81.71
46394;BME280;32099;53.588;10.176;2022-10-31T09:40:42;101813.22;;;15.88;81.76
46394;BME280;32099;53.588;10.176;2022-10-31T09:43:17;101809.72;;;15.95;81.61
46394;BME280;32099;53.588;10.176;2022-10-31T09:46:00;101805.84;;;15.89;80.04
46394;BME280;32099;53.588;10.176;2022-10-31T09:51:18;101809.66;;;15.88;80.83
46394;BME280;32099;53.588;10.176;2022-10-31T09:53:49;101813.16;;;15.97;81.23
46394;BME280;32099;53.588;10.176;2022-10-31T09:56:23;101827.56;;;15.99;80.81
46394;BME280;32099;53.588;10.176;2022-10-31T09:58:53;101833.31;;;16.04;80.63
46394;BME280;32099;53.588;10.176;2022-10-31T10:04:30;101832.88;;;16.00;80.37
46394;BME280;32099;53.588;10.176;2022-10-31T10:10:12;101849.38;;;16.00;80.91
46394;BME280;32099;53.588;10.176;2022-10-31T10:15:31;101843.28;;;16.05;80.91
46394;BME280;32099;53.588;10.176;2022-10-31T10:24:18;101825.31;;;16.24;79.43
46394;BME280;32099;53.588;10.176;2022-10-31T10:32:41;101827.16;;;16.39;77.90
46394;BME280;32099;53.588;10.176;2022-10-31T10:35:27;101828.22;;;16.38;78.31
46394;BME280;32099;53.588;10.176;2022-10-31T10:38:15;101822.94;;;16.43;78.78
46394;BME280;32099;53.588;10.176;2022-10-31T10:40:44;101822.09;;;16.64;78.08
46394;BME280;32099;53.588;10.176;2022-10-31T10:43:21;101828.41;;;16.79;76.66
46394;BME280;32099;53.588;10.176;2022-10-31T11:02:47;101806.59;;;16.85;75.47
46394;BME280;32099;53.588;10.176;2022-10-31T11:05:22;101807.00;;;16.81;75.57
46394;BME280;32099;53.588;10.176;2022-10-31T11:07:50;101801.44;;;16.75;76.27
46394;BME280;32099;53.588;10.176;2022-10-31T11:10:16;101799.94;;;16.72;75.87
46394;BME280;32099;53.588;10.176;2022-10-31T11:12:57;101801.78;;;16.65;76.27
46394;BME280;32099;53.588;10.176;2022-10-31T11:15:53;101799.94;;;16.72;76.69
46394;BME280;32099;53.588;10.176;2022-10-31T11:18:22;101801.25;;;16.76;76.17
46394;BME280;32099;53.588;10.176;2022-10-31T11:20:54;101798.09;;;16.79;76.36
46394;BME280;32099;53.588;10.176;2022-10-31T11:23:22;101792.59;;;16.79;75.80
46394;BME280;32099;53.588;10.176;2022-10-31T11:25:54;101794.88;;;16.76;75.96
46394;BME280;32099;53.588;10.176;2022-10-31T11:28:23;101784.44;;;16.71;76.24
46394;BME280;32099;53.588;10.176;2022-10-31T11:30:56;101786.09;;;16.65;76.10
46394;BME280;32099;53.588;10.176;2022-10-31T11:33:36;101788.78;;;16.59;76.44
46394;BME280;32099;53.588;10.176;2022-10-31T11:36:15;101783.03;;;16.54;75.85
46394;BME280;32099;53.588;10.176;2022-10-31T11:38:43;101778.72;;;16.44;77.28
46394;BME280;32099;53.588;10.176;2022-10-31T11:43:38;101779.34;;;16.46;76.73
46394;BME280;32099;53.588;10.176;2022-10-31T11:46:10;101777.31;;;16.55;77.11
46394;BME280;32099;53.588;10.176;2022-10-31T11:48:45;101783.28;;;16.59;76.48
46394;BME280;32099;53.588;10.176;2022-10-31T11:51:13;101780.41;;;16.67;76.73
46394;BME280;32099;53.588;10.176;2022-10-31T11:53:51;101778.81;;;16.79;76.32
46394;BME280;32099;53.588;10.176;2022-10-31T11:56:18;101785.00;;;16.88;76.46
46394;BME280;32099;53.588;10.176;2022-10-31T11:58:54;101788.56;;;17.04;76.16
46394;BME280;32099;53.588;10.176;2022-10-31T12:01:25;101784.44;;;17.21;75.59
46394;BME280;32099;53.588;10.176;2022-10-31T12:04:11;101773.09;;;17.38;74.91
46394;BME280;32099;53.588;10.176;2022-10-31T12:06:41;101778.44;;;17.46;74.24
46394;BME280;32099;53.588;10.176;2022-10-31T12:11:53;101768.53;;;17.58;74.75
46394;BME280;32099;53.588;10.176;2022-10-31T12:32:19;101762.09;;;19.48;67.12
46394;BME280;32099;53.588;10.176;2022-10-31T12:40:18;101749.22;;;18.41;70.38
46394;BME280;32099;53.588;10.176;2022-10-31T12:45:54;101747.94;;;18.16;72.15
46394;BME280;32099;53.588;10.176;2022-10-31T12:59:28;101750.59;;;17.96;72.36
46394;BME280;32099;53.588;10.176;2022-10-31T13:04:33;101743.78;;;17.79;70.62
46394;BME280;32099;53.588;10.176;2022-10-31T13:07:23;101744.38;;;17.67;72.13
46394;BME280;32099;53.588;10.176;2022-10-31T13:10:36;101739.69;;;17.68;72.90
46394;BME280;32099;53.588;10.176;2022-10-31T13:12:44;101734.44;;;17.73;72.19
46394;BME280;32099;53.588;10.176;2022-10-31T13:15:22;101728.03;;;17.72;72.00
46394;BME280;32099;53.588;10.176;2022-10-31T13:17:55;101726.53;;;17.63;71.84
46394;BME280;32099;53.588;10.176;2022-10-31T13:23:00;101716.91;;;17.39;72.68
46394;BME280;32099;53.588;10.176;2022-10-31T13:25:32;101728.69;;;17.26;73.26
46394;BME280;32099;53.588;10.176;2022-10-31T13:30:54;101726.28;;;17.09;73.57
46394;BME280;32099;53.588;10.176;2022-10-31T13:33:25;101721.34;;;16.98;73.90
46394;BME280;32099;53.588;10.176;2022-10-31T13:35:59;101711.28;;;16.90;74.22
46394;BME280;32099;53.588;10.176;2022-10-31T13:38:41;101712.94;;;16.85;74.62
46394;BME280;32099;53.588;10.176;2022-10-31T13:41:34;101708.72;;;16.82;74.52
46394;BME280;32099;53.588;10.176;2022-10-31T13:46:41;101706.66;;;16.91;73.99
46394;BME280;32099;53.588;10.176;2022-10-31T13:49:23;101706.50;;;16.99;73.86
46394;BME280;32099;53.588;10.176;2022-10-31T13:54:39;101692.47;;;16.94;73.94
46394;BME280;32099;53.588;10.176;2022-10-31T13:57:16;101677.84;;;16.93;73.83
46394;BME280;32099;53.588;10.176;2022-10-31T13:59:47;101667.13;;;16.77;73.52
46394;BME280;32099;53.588;10.176;2022-10-31T14:02:16;101676.22;;;16.71;74.92
46394;BME280;32099;53.588;10.176;2022-10-31T14:04:48;101672.41;;;16.72;75.16
46394;BME280;32099;53.588;10.176;2022-10-31T14:07:17;101668.84;;;16.78;75.03
46394;BME280;32099;53.588;10.176;2022-10-31T14:10:04;101661.22;;;16.80;74.45
46394;BME280;32099;53.588;10.176;2022-10-31T14:12:44;101666.28;;;16.76;74.30
46394;BME280;32099;53.588;10.176;2022-10-31T14:15:13;101659.88;;;16.69;74.42
46394;BME280;32099;53.588;10.176;2022-10-31T14:17:55;101658.16;;;16.61;75.15
46394;BME280;32099;53.588;10.176;2022-10-31T14:20:32;101655.97;;;16.57;75.14
46394;BME280;32099;53.588;10.176;2022-10-31T14:28:42;101640.00;;;16.17;75.93
46394;BME280;32099;53.588;10.176;2022-10-31T14:36:46;101630.56;;;15.83;77.08
46394;BME280;32099;53.588;10.176;2022-10-31T14:39:21;101638.56;;;15.78;77.86
46394;BME280;32099;53.588;10.176;2022-10-31T14:42:10;101638.38;;;15.79;77.24
46394;BME280;32099;53.588;10.176;2022-10-31T14:47:45;101615.31;;;15.58;77.18
46394;BME280;32099;53.588;10.176;2022-10-31T14:53:17;101595.63;;;15.55;77.89
46394;BME280;32099;53.588;10.176;2022-10-31T14:55:54;101600.47;;;15.53;77.63
46394;BME280;32099;53.588;10.176;2022-10-31T14:58:38;101582.00;;;15.47;77.51
46394;BME280;32099;53.588;10.176;2022-10-31T15:01:15;101572.75;;;15.33;78.21
46394;BME280;32099;53.588;10.176;2022-10-31T15:03:46;101573.53;;;15.26;78.54
46394;BME280;32099;53.588;10.176;2022-10-31T15:06:12;101597.63;;;15.24;78.31